sensor_id;sensor_type;location;lat;lon;timestamp;temperature;humidity
4643;DHT22;2334;48.710;9.622;2023-04-01T00:01:31;9.50;99.90
4643;DHT22;2334;48.710;9.622;2023-04-01T00:03:58;9.50;99.90
4643;DHT22;2334;48.710;9.622;2023-04-01T00:06:27;9.60;99.90
4643;DHT22;2334;48.710;9.622;2023-04-01T00:08:55;9.60;99.90
4643;DHT22;2334;48.710;9.622;2023-04-01T00:11:22;9.50;99.90
4643;DHT22;2334;48.710;9.622;2023-04-01T00:13:50;9.50;99.90
4643;DHT22;2334;48.710;9.622;2023-04-01T00:16:17;9.60;99.90
4643;DHT22;2334;48.710;9.622;2023-04-01T00:18:44;9.50;99.90
4643;DHT22;2334;48.710;9.622;2023-04-01T00:21:12;9.60;99.90
4643;DHT22;2334;48.710;9.622;2023-04-01T00:23:39;9.60;99.90
4643;DHT22;2334;48.710;9.622;2023-04-01T00:26:06;9.50;99.90
4643;DHT22;2334;48.710;9.622;2023-04-01T00:28:34;9.60;99.90
4643;DHT22;2334;48.710;9.622;2023-04-01T00:31:06;9.60;99.90
4643;DHT22;2334;48.710;9.622;2023-04-01T00:33:32;9.60;99.90
4643;DHT22;2334;48.710;9.622;2023-04-01T00:36:06;9.60;99.90
4643;DHT22;2334;48.710;9.622;2023-04-01T00:38:34;9.60;99.90
4643;DHT22;2334;48.710;9.622;2023-04-01T00:41:00;9.70;99.90
4643;DHT22;2334;48.710;9.622;2023-04-01T00:43:27;9.70;99.90
4643;DHT22;2334;48.710;9.622;2023-04-01T00:45:54;9.70;99.90
4643;DHT22;2334;48.710;9.622;2023-04-01T00:48:26;9.60;99.90
4643;DHT22;2334;48.710;9.622;2023-04-01T00:50:57;9.60;99.90
4643;DHT22;2334;48.710;9.622;2023-04-01T00:53:24;9.60;99.90
4643;DHT22;2334;48.710;9.622;2023-04-01T00:55:58;9.60;99.90
4643;DHT22;2334;48.710;9.622;2023-04-01T00:58:28;9.50;99.90
4643;DHT22;2334;48.710;9.622;2023-04-01T01:00:58;9.50;99.90
4643;DHT22;2334;48.710;9.622;2023-04-01T01:03:27;9.60;99.90
4643;DHT22;2334;48.710;9.622;2023-04-01T01:06:08;9.60;99.90
4643;DHT22;2334;48.710;9.622;2023-04-01T01:11:39;9.60;99.90
4643;DHT22;2334;48.710;9.622;2023-04-01T01:14:16;9.60;99.90
4643;DHT22;2334;48.710;9.622;2023-04-01T01:16:50;9.60;99.90
4643;DHT22;2334;48.710;9.622;2023-04-01T01:19:41;9.60;99.90
4643;DHT22;2334;48.710;9.622;2023-04-01T01:22:22;9.60;99.90
4643;DHT22;2334;48.710;9.622;2023-04-01T01:25:08;9.60;99.90
4643;DHT22;2334;48.710;9.622;2023-04-01T01:27:39;9.60;99.90
4643;DHT22;2334;48.710;9.622;2023-04-01T01:30:31;9.60;99.90
4643;DHT22;2334;48.710;9.622;2023-04-01T01:33:34;9.50;99.90
4643;DHT22;2334;48.710;9.622;2023-04-01T01:36:05;9.50;99.90
4643;DHT22;2334;48.710;9.622;2023-04-01T01:38:34;9.40;99.90
4643;DHT22;2334;48.710;9.622;2023-04-01T01:41:03;9.40;99.90
4643;DHT22;2334;48.710;9.622;2023-04-01T01:43:32;9.40;99.90
4643;DHT22;2334;48.710;9.622;2023-04-01T01:46:04;9.30;99.90
4643;DHT22;2334;48.710;9.622;2023-04-01T01:48:34;9.30;99.90
4643;DHT22;2334;48.710;9.622;2023-04-01T01:51:04;9.30;99.90
4643;DHT22;2334;48.710;9.622;2023-04-01T01:53:31;9.30;99.90
4643;DHT22;2334;48.710;9.622;2023-04-01T01:55:58;9.30;99.90
4643;DHT22;2334;48.710;9.622;2023-04-01T01:58:28;9.30;99.90
4643;DHT22;2334;48.710;9.622;2023-04-01T02:00:57;9.30;99.90
4643;DHT22;2334;48.710;9.622;2023-04-01T02:03:27;9.20;99.90
4643;DHT22;2334;48.710;9.622;2023-04-01T02:05:57;9.20;99.90
4643;DHT22;2334;48.710;9.622;2023-04-01T02:08:30;9.20;99.90
4643;DHT22;2334;48.710;9.622;2023-04-01T02:11:04;9.20;99.90
4643;DHT22;2334;48.710;9.622;2023-04-01T02:13:37;9.20;99.90
4643;DHT22;2334;48.710;9.622;2023-04-01T02:16:10;9.20;99.90
4643;DHT22;2334;48.710;9.622;2023-04-01T02:18:39;9.10;99.90
4643;DHT22;2334;48.710;9.622;2023-04-01T02:21:08;9.00;99.90
4643;DHT22;2334;48.710;9.622;2023-04-01T02:23:38;9.00;99.90
4643;DHT22;2334;48.710;9.622;2023-04-01T02:26:07;9.10;99.90
4643;DHT22;2334;48.710;9.622;2023-04-01T02:28:36;9.00;99.90
4643;DHT22;2334;48.710;9.622;2023-04-01T02:31:03;9.00;99.90
4643;DHT22;2334;48.710;9.622;2023-04-01T02:33:31;8.90;99.90
4643;DHT22;2334;48.710;9.622;2023-04-01T02:35:58;9.00;99.90
4643;DHT22;2334;48.710;9.622;2023-04-01T02:38:25;9.00;99.90
4643;DHT22;2334;48.710;9.622;2023-04-01T02:40:59;8.90;99.90
4643;DHT22;2334;48.710;9.622;2023-04-01T02:43:27;9.00;99.90
4643;DHT22;2334;48.710;9.622;2023-04-01T02:45:54;8.90;99.90
4643;DHT22;2334;48.710;9.622;2023-04-01T02:48:20;8.90;99.90
4643;DHT22;2334;48.710;9.622;2023-04-01T02:50:47;8.90;99.90
4643;DHT22;2334;48.710;9.622;2023-04-01T02:53:15;8.90;99.90
4643;DHT22;2334;48.710;9.622;2023-04-01T02:55:42;8.90;99.90
4643;DHT22;2334;48.710;9.622;2023-04-01T02:58:11;8.90;99.90
4643;DHT22;2334;48.710;9.622;2023-04-01T03:00:38;8.80;99.90
4643;DHT22;2334;48.710;9.622;2023-04-01T03:03:05;8.80;99.90
4643;DHT22;2334;48.710;9.622;2023-04-01T03:05:32;8.80;99.90
4643;DHT22;2334;48.710;9.622;2023-04-01T03:07:59;8.80;99.90
4643;DHT22;2334;48.710;9.622;2023-04-01T03:10:26;8.70;99.90
4643;DHT22;2334;48.710;9.622;2023-04-01T03:12:53;8.70;99.90
4643;DHT22;2334;48.710;9.622;2023-04-01T03:15:21;8.70;99.90
4643;DHT22;2334;48.710;9.622;2023-04-01T03:17:48;8.70;99.90
4643;DHT22;2334;48.710;9.622;2023-04-01T03:20:15;8.70;99.90
4643;DHT22;2334;48.710;9.622;2023-04-01T03:22:42;8.60;99.90
4643;DHT22;2334;48.710;9.622;2023-04-01T03:25:10;8.50;99.90
4643;DHT22;2334;48.710;9.622;2023-04-01T03:27:37;8.50;99.90
4643;DHT22;2334;48.710;9.622;2023-04-01T03:30:05;8.50;99.90
4643;DHT22;2334;48.710;9.622;2023-04-01T03:32:34;8.50;99.90
4643;DHT22;2334;48.710;9.622;2023-04-01T03:35:01;8.50;99.90
4643;DHT22;2334;48.710;9.622;2023-04-01T03:37:28;8.40;99.90
4643;DHT22;2334;48.710;9.622;2023-04-01T03:39:55;8.50;99.90
4643;DHT22;2334;48.710;9.622;2023-04-01T03:42:22;8.50;99.90
4643;DHT22;2334;48.710;9.622;2023-04-01T03:44:48;8.40;99.90
4643;DHT22;2334;48.710;9.622;2023-04-01T03:47:15;8.40;99.90
4643;DHT22;2334;48.710;9.622;2023-04-01T03:49:44;8.40;99.90
4643;DHT22;2334;48.710;9.622;2023-04-01T03:52:11;8.40;99.90
4643;DHT22;2334;48.710;9.622;2023-04-01T03:54:38;8.40;99.90
4643;DHT22;2334;48.710;9.622;2023-04-01T03:57:05;8.40;99.90
4643;DHT22;2334;48.710;9.622;2023-04-01T03:59:32;8.40;99.90
4643;DHT22;2334;48.710;9.622;2023-04-01T04:01:59;8.40;99.90
4643;DHT22;2334;48.710;9.622;2023-04-01T04:04:26;8.40;99.90
4643;DHT22;2334;48.710;9.622;2023-04-01T04:06:54;8.40;99.90
4643;DHT22;2334;48.710;9.622;2023-04-01T04:09:21;8.50;99.90
4643;DHT22;2334;48.710;9.622;2023-04-01T04:11:49;8.50;99.90
4643;DHT22;2334;48.710;9.622;2023-04-01T04:14:16;8.40;99.90
4643;DHT22;2334;48.710;9.622;2023-04-01T04:16:43;8.40;99.90
4643;DHT22;2334;48.710;9.622;2023-04-01T04:19:10;8.40;99.90
4643;DHT22;2334;48.710;9.622;2023-04-01T04:21:37;8.40;99.90
4643;DHT22;2334;48.710;9.622;2023-04-01T04:24:06;8.30;99.90
4643;DHT22;2334;48.710;9.622;2023-04-01T04:26:33;8.30;99.90
4643;DHT22;2334;48.710;9.622;2023-04-01T04:29:00;8.30;99.90
4643;DHT22;2334;48.710;9.622;2023-04-01T04:31:27;8.20;99.90
4643;DHT22;2334;48.710;9.622;2023-04-01T04:33:54;8.30;99.90
4643;DHT22;2334;48.710;9.622;2023-04-01T04:36:21;8.20;99.90
4643;DHT22;2334;48.710;9.622;2023-04-01T04:38:48;8.30;99.90
4643;DHT22;2334;48.710;9.622;2023-04-01T04:41:18;8.20;99.90
4643;DHT22;2334;48.710;9.622;2023-04-01T04:43:51;8.20;99.90
4643;DHT22;2334;48.710;9.622;2023-04-01T04:46:19;8.20;99.90
4643;DHT22;2334;48.710;9.622;2023-04-01T04:48:46;8.20;99.90
4643;DHT22;2334;48.710;9.622;2023-04-01T04:51:14;8.20;99.90
4643;DHT22;2334;48.710;9.622;2023-04-01T04:53:42;8.20;99.90
4643;DHT22;2334;48.710;9.622;2023-04-01T04:56:09;8.20;99.90
4643;DHT22;2334;48.710;9.622;2023-04-01T04:58:38;8.20;99.90
4643;DHT22;2334;48.710;9.622;2023-04-01T05:01:06;8.20;99.90
4643;DHT22;2334;48.710;9.622;2023-04-01T05:03:34;8.20;99.90
4643;DHT22;2334;48.710;9.622;2023-04-01T05:06:00;8.20;99.90
4643;DHT22;2334;48.710;9.622;2023-04-01T05:08:27;8.20;99.90
4643;DHT22;2334;48.710;9.622;2023-04-01T05:10:55;8.20;99.90
4643;DHT22;2334;48.710;9.622;2023-04-01T05:13:22;8.20;99.90
4643;DHT22;2334;48.710;9.622;2023-04-01T05:15:50;8.30;99.90
4643;DHT22;2334;48.710;9.622;2023-04-01T05:18:17;8.30;99.90
4643;DHT22;2334;48.710;9.622;2023-04-01T05:20:48;8.30;99.90
4643;DHT22;2334;48.710;9.622;2023-04-01T05:23:16;8.20;99.90
4643;DHT22;2334;48.710;9.622;2023-04-01T05:25:43;8.30;99.90
4643;DHT22;2334;48.710;9.622;2023-04-01T05:28:11;8.40;99.90
4643;DHT22;2334;48.710;9.622;2023-04-01T05:30:39;8.50;99.90
4643;DHT22;2334;48.710;9.622;2023-04-01T05:33:08;8.50;99.90
4643;DHT22;2334;48.710;9.622;2023-04-01T05:35:35;8.60;99.90
4643;DHT22;2334;48.710;9.622;2023-04-01T05:38:02;8.60;99.90
4643;DHT22;2334;48.710;9.622;2023-04-01T05:40:30;8.70;99.90
4643;DHT22;2334;48.710;9.622;2023-04-01T05:42:57;8.80;99.90
4643;DHT22;2334;48.710;9.622;2023-04-01T05:45:24;8.80;99.90
4643;DHT22;2334;48.710;9.622;2023-04-01T05:47:51;8.80;99.90
4643;DHT22;2334;48.710;9.622;2023-04-01T05:50:20;8.80;99.90
4643;DHT22;2334;48.710;9.622;2023-04-01T05:52:47;8.80;99.90
4643;DHT22;2334;48.710;9.622;2023-04-01T05:55:14;8.90;99.90
4643;DHT22;2334;48.710;9.622;2023-04-01T05:57:40;8.90;99.90
4643;DHT22;2334;48.710;9.622;2023-04-01T06:00:08;9.00;99.90
4643;DHT22;2334;48.710;9.622;2023-04-01T06:02:36;9.00;99.90
4643;DHT22;2334;48.710;9.622;2023-04-01T06:05:20;8.90;99.90
4643;DHT22;2334;48.710;9.622;2023-04-01T06:07:48;9.00;99.90
4643;DHT22;2334;48.710;9.622;2023-04-01T06:10:16;9.00;99.90
4643;DHT22;2334;48.710;9.622;2023-04-01T06:12:54;9.00;99.90
4643;DHT22;2334;48.710;9.622;2023-04-01T06:15:33;9.00;99.90
4643;DHT22;2334;48.710;9.622;2023-04-01T06:18:35;9.00;99.90
4643;DHT22;2334;48.710;9.622;2023-04-01T06:21:31;9.10;99.90
4643;DHT22;2334;48.710;9.622;2023-04-01T06:24:13;9.10;99.90
4643;DHT22;2334;48.710;9.622;2023-04-01T06:26:48;9.20;99.90
4643;DHT22;2334;48.710;9.622;2023-04-01T06:32:27;9.20;99.90
4643;DHT22;2334;48.710;9.622;2023-04-01T06:35:07;9.30;99.90
4643;DHT22;2334;48.710;9.622;2023-04-01T06:38:03;9.30;99.90
4643;DHT22;2334;48.710;9.622;2023-04-01T06:40:58;9.30;99.90
4643;DHT22;2334;48.710;9.622;2023-04-01T06:43:37;9.40;99.90
4643;DHT22;2334;48.710;9.622;2023-04-01T06:46:11;9.40;99.90
4643;DHT22;2334;48.710;9.622;2023-04-01T06:48:54;9.50;99.90
4643;DHT22;2334;48.710;9.622;2023-04-01T06:51:32;9.60;99.90
4643;DHT22;2334;48.710;9.622;2023-04-01T06:54:07;9.70;99.90
4643;DHT22;2334;48.710;9.622;2023-04-01T06:56:37;9.70;99.90
4643;DHT22;2334;48.710;9.622;2023-04-01T06:59:11;9.80;99.90
4643;DHT22;2334;48.710;9.622;2023-04-01T07:01:41;9.80;99.90
4643;DHT22;2334;48.710;9.622;2023-04-01T07:04:13;9.90;99.90
4643;DHT22;2334;48.710;9.622;2023-04-01T07:06:45;10.00;99.90
4643;DHT22;2334;48.710;9.622;2023-04-01T07:09:18;10.00;99.90
4643;DHT22;2334;48.710;9.622;2023-04-01T07:11:46;10.10;99.90
4643;DHT22;2334;48.710;9.622;2023-04-01T07:14:19;10.20;99.90
4643;DHT22;2334;48.710;9.622;2023-04-01T07:16:51;10.20;99.90
4643;DHT22;2334;48.710;9.622;2023-04-01T07:19:22;10.20;99.90
4643;DHT22;2334;48.710;9.622;2023-04-01T07:21:54;10.20;99.90
4643;DHT22;2334;48.710;9.622;2023-04-01T07:24:27;10.20;99.90
4643;DHT22;2334;48.710;9.622;2023-04-01T07:26:56;10.20;99.90
4643;DHT22;2334;48.710;9.622;2023-04-01T07:29:25;10.20;99.90
4643;DHT22;2334;48.710;9.622;2023-04-01T07:32:03;10.20;99.90
4643;DHT22;2334;48.710;9.622;2023-04-01T07:34:38;10.20;99.90
4643;DHT22;2334;48.710;9.622;2023-04-01T07:37:12;10.30;99.90
4643;DHT22;2334;48.710;9.622;2023-04-01T07:39:49;10.20;99.90
4643;DHT22;2334;48.710;9.622;2023-04-01T07:42:28;10.20;99.90
4643;DHT22;2334;48.710;9.622;2023-04-01T07:45:05;10.20;99.90
4643;DHT22;2334;48.710;9.622;2023-04-01T07:47:50;10.30;99.90
4643;DHT22;2334;48.710;9.622;2023-04-01T07:50:26;10.30;99.90
4643;DHT22;2334;48.710;9.622;2023-04-01T07:53:01;10.40;99.90
4643;DHT22;2334;48.710;9.622;2023-04-01T07:55:35;10.40;99.90
4643;DHT22;2334;48.710;9.622;2023-04-01T07:58:12;10.40;99.90
4643;DHT22;2334;48.710;9.622;2023-04-01T08:00:44;10.40;99.90
4643;DHT22;2334;48.710;9.622;2023-04-01T08:03:27;10.40;99.90
4643;DHT22;2334;48.710;9.622;2023-04-01T08:06:01;10.40;99.90
4643;DHT22;2334;48.710;9.622;2023-04-01T08:08:40;10.40;99.90
4643;DHT22;2334;48.710;9.622;2023-04-01T08:11:15;10.40;99.90
4643;DHT22;2334;48.710;9.622;2023-04-01T08:13:47;10.40;99.90
4643;DHT22;2334;48.710;9.622;2023-04-01T08:16:22;10.40;99.90
4643;DHT22;2334;48.710;9.622;2023-04-01T08:18:57;10.50;99.90
4643;DHT22;2334;48.710;9.622;2023-04-01T08:21:28;10.50;99.90
4643;DHT22;2334;48.710;9.622;2023-04-01T08:24:00;10.50;99.90
4643;DHT22;2334;48.710;9.622;2023-04-01T08:26:37;10.50;99.90
4643;DHT22;2334;48.710;9.622;2023-04-01T08:29:10;10.60;99.90
4643;DHT22;2334;48.710;9.622;2023-04-01T08:31:43;10.50;99.90
4643;DHT22;2334;48.710;9.622;2023-04-01T08:34:16;10.50;99.90
4643;DHT22;2334;48.710;9.622;2023-04-01T08:36:47;10.50;99.90
4643;DHT22;2334;48.710;9.622;2023-04-01T08:39:23;10.50;99.90
4643;DHT22;2334;48.710;9.622;2023-04-01T08:42:18;10.50;99.90
4643;DHT22;2334;48.710;9.622;2023-04-01T08:45:18;10.50;99.90
4643;DHT22;2334;48.710;9.622;2023-04-01T08:48:07;10.50;99.90
4643;DHT22;2334;48.710;9.622;2023-04-01T08:50:57;10.50;99.90
4643;DHT22;2334;48.710;9.622;2023-04-01T08:53:43;10.40;99.90
4643;DHT22;2334;48.710;9.622;2023-04-01T08:56:18;10.50;99.90
4643;DHT22;2334;48.710;9.622;2023-04-01T09:02:04;10.40;99.90
4643;DHT22;2334;48.710;9.622;2023-04-01T09:04:59;10.40;99.90
4643;DHT22;2334;48.710;9.622;2023-04-01T09:07:35;10.50;99.90
4643;DHT22;2334;48.710;9.622;2023-04-01T09:13:14;10.50;99.90
4643;DHT22;2334;48.710;9.622;2023-04-01T09:16:01;10.40;99.90
4643;DHT22;2334;48.710;9.622;2023-04-01T09:18:56;10.40;99.90
4643;DHT22;2334;48.710;9.622;2023-04-01T09:21:35;10.30;99.90
4643;DHT22;2334;48.710;9.622;2023-04-01T09:24:26;10.30;99.90
4643;DHT22;2334;48.710;9.622;2023-04-01T09:27:05;10.10;99.90
4643;DHT22;2334;48.710;9.622;2023-04-01T09:30:13;9.90;99.90
4643;DHT22;2334;48.710;9.622;2023-04-01T09:36:04;9.70;99.90
4643;DHT22;2334;48.710;9.622;2023-04-01T09:38:42;9.80;99.90
4643;DHT22;2334;48.710;9.622;2023-04-01T09:41:19;9.80;99.90
4643;DHT22;2334;48.710;9.622;2023-04-01T09:44:01;9.70;99.90
4643;DHT22;2334;48.710;9.622;2023-04-01T09:46:39;9.70;99.90
4643;DHT22;2334;48.710;9.622;2023-04-01T09:49:30;9.70;99.90
4643;DHT22;2334;48.710;9.622;2023-04-01T09:52:14;9.70;99.90
4643;DHT22;2334;48.710;9.622;2023-04-01T09:54:56;9.80;99.90
4643;DHT22;2334;48.710;9.622;2023-04-01T10:00:59;9.90;99.90
4643;DHT22;2334;48.710;9.622;2023-04-01T10:13:17;10.10;99.90
4643;DHT22;2334;48.710;9.622;2023-04-01T10:16:08;10.00;99.90
4643;DHT22;2334;48.710;9.622;2023-04-01T10:18:51;9.90;99.90
4643;DHT22;2334;48.710;9.622;2023-04-01T10:36:53;9.70;99.90
4643;DHT22;2334;48.710;9.622;2023-04-01T10:39:34;9.60;99.90
4643;DHT22;2334;48.710;9.622;2023-04-01T10:42:38;9.60;99.90
4643;DHT22;2334;48.710;9.622;2023-04-01T10:45:38;9.60;99.90
4643;DHT22;2334;48.710;9.622;2023-04-01T10:51:35;9.60;99.90
4643;DHT22;2334;48.710;9.622;2023-04-01T10:54:43;9.60;99.90
4643;DHT22;2334;48.710;9.622;2023-04-01T10:57:29;9.50;99.90
4643;DHT22;2334;48.710;9.622;2023-04-01T11:03:44;9.70;99.90
4643;DHT22;2334;48.710;9.622;2023-04-01T11:06:48;9.80;99.90
4643;DHT22;2334;48.710;9.622;2023-04-01T11:19:15;9.70;99.90
4643;DHT22;2334;48.710;9.622;2023-04-01T11:22:07;9.70;99.90
4643;DHT22;2334;48.710;9.622;2023-04-01T11:24:47;9.70;99.90
4643;DHT22;2334;48.710;9.622;2023-04-01T11:27:37;9.80;99.90
4643;DHT22;2334;48.710;9.622;2023-04-01T11:30:19;9.80;99.90
4643;DHT22;2334;48.710;9.622;2023-04-01T11:32:54;9.90;99.90
4643;DHT22;2334;48.710;9.622;2023-04-01T11:35:45;9.90;99.90
4643;DHT22;2334;48.710;9.622;2023-04-01T11:38:23;9.90;99.90
4643;DHT22;2334;48.710;9.622;2023-04-01T11:40:59;9.90;99.90
4643;DHT22;2334;48.710;9.622;2023-04-01T11:43:32;9.90;99.90
4643;DHT22;2334;48.710;9.622;2023-04-01T11:46:05;9.90;99.90
4643;DHT22;2334;48.710;9.622;2023-04-01T11:48:48;9.90;99.90
4643;DHT22;2334;48.710;9.622;2023-04-01T11:51:52;10.00;99.90
4643;DHT22;2334;48.710;9.622;2023-04-01T11:54:33;10.00;99.90
4643;DHT22;2334;48.710;9.622;2023-04-01T11:57:31;10.10;99.90
4643;DHT22;2334;48.710;9.622;2023-04-01T12:00:16;10.20;99.90
4643;DHT22;2334;48.710;9.622;2023-04-01T12:02:55;10.30;99.90
4643;DHT22;2334;48.710;9.622;2023-04-01T12:05:38;10.30;99.90
4643;DHT22;2334;48.710;9.622;2023-04-01T12:08:27;10.30;99.90
4643;DHT22;2334;48.710;9.622;2023-04-01T12:11:02;10.30;99.90
4643;DHT22;2334;48.710;9.622;2023-04-01T12:13:39;10.30;99.90
4643;DHT22;2334;48.710;9.622;2023-04-01T12:16:29;10.30;99.90
4643;DHT22;2334;48.710;9.622;2023-04-01T12:19:04;10.30;99.90
4643;DHT22;2334;48.710;9.622;2023-04-01T12:21:37;10.40;99.90
4643;DHT22;2334;48.710;9.622;2023-04-01T12:24:32;10.40;99.90
4643;DHT22;2334;48.710;9.622;2023-04-01T12:27:13;10.50;99.90
4643;DHT22;2334;48.710;9.622;2023-04-01T12:30:05;10.40;99.90
4643;DHT22;2334;48.710;9.622;2023-04-01T12:32:41;10.30;99.90
4643;DHT22;2334;48.710;9.622;2023-04-01T12:35:20;10.20;99.90
4643;DHT22;2334;48.710;9.622;2023-04-01T12:38:00;10.20;99.90
4643;DHT22;2334;48.710;9.622;2023-04-01T12:41:06;10.10;99.90
4643;DHT22;2334;48.710;9.622;2023-04-01T12:44:15;10.10;99.90
4643;DHT22;2334;48.710;9.622;2023-04-01T12:46:58;10.10;99.90
4643;DHT22;2334;48.710;9.622;2023-04-01T12:49:48;10.10;99.90
4643;DHT22;2334;48.710;9.622;2023-04-01T12:52:28;10.10;99.90
4643;DHT22;2334;48.710;9.622;2023-04-01T12:55:37;10.10;99.90
4643;DHT22;2334;48.710;9.622;2023-04-01T13:01:27;10.10;99.90
4643;DHT22;2334;48.710;9.622;2023-04-01T13:04:27;10.10;99.90
4643;DHT22;2334;48.710;9.622;2023-04-01T13:09:56;10.20;99.90
4643;DHT22;2334;48.710;9.622;2023-04-01T13:15:31;10.20;99.90
4643;DHT22;2334;48.710;9.622;2023-04-01T13:18:11;10.30;99.90
4643;DHT22;2334;48.710;9.622;2023-04-01T13:20:44;10.40;99.90
4643;DHT22;2334;48.710;9.622;2023-04-01T13:23:23;10.40;99.90
4643;DHT22;2334;48.710;9.622;2023-04-01T13:25:58;10.40;99.90
4643;DHT22;2334;48.710;9.622;2023-04-01T13:28:32;10.50;99.90
4643;DHT22;2334;48.710;9.622;2023-04-01T13:31:05;10.40;99.90
4643;DHT22;2334;48.710;9.622;2023-04-01T13:33:40;10.40;99.90
4643;DHT22;2334;48.710;9.622;2023-04-01T13:36:20;10.40;99.90
4643;DHT22;2334;48.710;9.622;2023-04-01T13:39:15;10.40;99.90
4643;DHT22;2334;48.710;9.622;2023-04-01T13:42:12;10.50;99.90
4643;DHT22;2334;48.710;9.622;2023-04-01T13:44:45;10.50;99.90
4643;DHT22;2334;48.710;9.622;2023-04-01T13:47:50;10.50;99.90
4643;DHT22;2334;48.710;9.622;2023-04-01T13:50:43;10.50;99.90
4643;DHT22;2334;48.710;9.622;2023-04-01T13:53:39;10.50;99.90
4643;DHT22;2334;48.710;9.622;2023-04-01T13:56:20;10.60;99.90
4643;DHT22;2334;48.710;9.622;2023-04-01T13:59:03;10.60;99.90
4643;DHT22;2334;48.710;9.622;2023-04-01T14:01:39;10.50;99.90
4643;DHT22;2334;48.710;9.622;2023-04-01T14:04:49;10.50;99.90
4643;DHT22;2334;48.710;9.622;2023-04-01T14:07:48;10.60;99.90
4643;DHT22;2334;48.710;9.622;2023-04-01T14:10:22;10.70;99.90
4643;DHT22;2334;48.710;9.622;2023-04-01T14:12:58;10.90;99.90
4643;DHT22;2334;48.710;9.622;2023-04-01T14:15:46;10.90;99.90
4643;DHT22;2334;48.710;9.622;2023-04-01T14:18:38;10.90;99.90
4643;DHT22;2334;48.710;9.622;2023-04-01T14:21:20;10.90;99.90
4643;DHT22;2334;48.710;9.622;2023-04-01T14:24:14;10.90;99.90
4643;DHT22;2334;48.710;9.622;2023-04-01T14:27:03;11.00;99.90
4643;DHT22;2334;48.710;9.622;2023-04-01T14:29:42;11.00;99.90
4643;DHT22;2334;48.710;9.622;2023-04-01T14:32:22;11.00;99.90
4643;DHT22;2334;48.710;9.622;2023-04-01T14:34:59;11.00;99.90
4643;DHT22;2334;48.710;9.622;2023-04-01T14:38:02;11.00;99.90
4643;DHT22;2334;48.710;9.622;2023-04-01T14:40:44;11.00;99.90
4643;DHT22;2334;48.710;9.622;2023-04-01T14:43:47;11.10;99.90
4643;DHT22;2334;48.710;9.622;2023-04-01T14:48:59;11.20;99.90
4643;DHT22;2334;48.710;9.622;2023-04-01T14:51:30;11.20;99.90
4643;DHT22;2334;48.710;9.622;2023-04-01T14:54:04;11.10;99.90
4643;DHT22;2334;48.710;9.622;2023-04-01T14:56:43;11.10;99.90
4643;DHT22;2334;48.710;9.622;2023-04-01T14:59:14;11.00;99.90
4643;DHT22;2334;48.710;9.622;2023-04-01T15:01:47;10.90;99.90
4643;DHT22;2334;48.710;9.622;2023-04-01T15:04:46;10.80;99.90
4643;DHT22;2334;48.710;9.622;2023-04-01T15:07:35;10.90;99.90
4643;DHT22;2334;48.710;9.622;2023-04-01T15:10:12;10.80;99.90
4643;DHT22;2334;48.710;9.622;2023-04-01T15:12:52;10.70;99.90
4643;DHT22;2334;48.710;9.622;2023-04-01T15:15:32;10.60;99.90
4643;DHT22;2334;48.710;9.622;2023-04-01T15:18:08;10.60;99.90
4643;DHT22;2334;48.710;9.622;2023-04-01T15:20:58;10.50;99.90
4643;DHT22;2334;48.710;9.622;2023-04-01T15:23:37;10.50;99.90
4643;DHT22;2334;48.710;9.622;2023-04-01T15:29:35;10.50;99.90
4643;DHT22;2334;48.710;9.622;2023-04-01T15:32:16;10.50;99.90
4643;DHT22;2334;48.710;9.622;2023-04-01T15:34:52;10.50;99.90
4643;DHT22;2334;48.710;9.622;2023-04-01T15:37:34;10.50;99.90
4643;DHT22;2334;48.710;9.622;2023-04-01T15:40:15;10.50;99.90
4643;DHT22;2334;48.710;9.622;2023-04-01T15:42:54;10.50;99.90
4643;DHT22;2334;48.710;9.622;2023-04-01T15:45:33;10.50;99.90
4643;DHT22;2334;48.710;9.622;2023-04-01T15:48:13;10.50;99.90
4643;DHT22;2334;48.710;9.622;2023-04-01T15:50:54;10.50;99.90
4643;DHT22;2334;48.710;9.622;2023-04-01T15:53:43;10.40;99.90
4643;DHT22;2334;48.710;9.622;2023-04-01T15:56:36;10.40;99.90
4643;DHT22;2334;48.710;9.622;2023-04-01T15:59:18;10.40;99.90
4643;DHT22;2334;48.710;9.622;2023-04-01T16:01:53;10.40;99.90
4643;DHT22;2334;48.710;9.622;2023-04-01T16:04:43;10.40;99.90
4643;DHT22;2334;48.710;9.622;2023-04-01T16:07:26;10.40;99.90
4643;DHT22;2334;48.710;9.622;2023-04-01T16:10:16;10.40;99.90
4643;DHT22;2334;48.710;9.622;2023-04-01T16:12:58;10.30;99.90
4643;DHT22;2334;48.710;9.622;2023-04-01T16:15:36;10.40;99.90
4643;DHT22;2334;48.710;9.622;2023-04-01T16:18:27;10.30;99.90
4643;DHT22;2334;48.710;9.622;2023-04-01T16:21:02;10.40;99.90
4643;DHT22;2334;48.710;9.622;2023-04-01T16:23:36;10.40;99.90
4643;DHT22;2334;48.710;9.622;2023-04-01T16:26:07;10.40;99.90
4643;DHT22;2334;48.710;9.622;2023-04-01T16:28:40;10.40;99.90
4643;DHT22;2334;48.710;9.622;2023-04-01T16:31:14;10.40;99.90
4643;DHT22;2334;48.710;9.622;2023-04-01T16:33:49;10.40;99.90
4643;DHT22;2334;48.710;9.622;2023-04-01T16:36:26;10.40;99.90
4643;DHT22;2334;48.710;9.622;2023-04-01T16:39:09;10.30;99.90
4643;DHT22;2334;48.710;9.622;2023-04-01T16:41:46;10.30;99.90
4643;DHT22;2334;48.710;9.622;2023-04-01T16:44:19;10.30;99.90
4643;DHT22;2334;48.710;9.622;2023-04-01T16:46:49;10.40;99.90
4643;DHT22;2334;48.710;9.622;2023-04-01T16:49:29;10.40;99.90
4643;DHT22;2334;48.710;9.622;2023-04-01T16:52:15;10.40;99.90
4643;DHT22;2334;48.710;9.622;2023-04-01T16:54:46;10.40;99.90
4643;DHT22;2334;48.710;9.622;2023-04-01T16:57:26;10.40;99.90
4643;DHT22;2334;48.710;9.622;2023-04-01T16:59:58;10.40;99.90
4643;DHT22;2334;48.710;9.622;2023-04-01T17:02:30;10.40;99.90
4643;DHT22;2334;48.710;9.622;2023-04-01T17:05:03;10.40;99.90
4643;DHT22;2334;48.710;9.622;2023-04-01T17:07:39;10.30;99.90
4643;DHT22;2334;48.710;9.622;2023-04-01T17:10:25;10.30;99.90
4643;DHT22;2334;48.710;9.622;2023-04-01T17:13:16;10.30;99.90
4643;DHT22;2334;48.710;9.622;2023-04-01T17:15:53;10.40;99.90
4643;DHT22;2334;48.710;9.622;2023-04-01T17:18:30;10.30;99.90
4643;DHT22;2334;48.710;9.622;2023-04-01T17:21:05;10.30;99.90
4643;DHT22;2334;48.710;9.622;2023-04-01T17:23:37;10.30;99.90
4643;DHT22;2334;48.710;9.622;2023-04-01T17:26:17;10.30;99.90
4643;DHT22;2334;48.710;9.622;2023-04-01T17:28:52;10.30;99.90
4643;DHT22;2334;48.710;9.622;2023-04-01T17:31:32;10.30;99.90
4643;DHT22;2334;48.710;9.622;2023-04-01T17:34:21;10.30;99.90
4643;DHT22;2334;48.710;9.622;2023-04-01T17:37:02;10.20;99.90
4643;DHT22;2334;48.710;9.622;2023-04-01T17:39:44;10.20;99.90
4643;DHT22;2334;48.710;9.622;2023-04-01T17:42:16;10.20;99.90
4643;DHT22;2334;48.710;9.622;2023-04-01T17:44:54;10.20;99.90
4643;DHT22;2334;48.710;9.622;2023-04-01T17:47:43;10.20;99.90
4643;DHT22;2334;48.710;9.622;2023-04-01T17:50:23;10.20;99.90
4643;DHT22;2334;48.710;9.622;2023-04-01T17:53:02;10.20;99.90
4643;DHT22;2334;48.710;9.622;2023-04-01T17:55:46;10.20;99.90
4643;DHT22;2334;48.710;9.622;2023-04-01T17:58:18;10.20;99.90
4643;DHT22;2334;48.710;9.622;2023-04-01T18:01:09;10.20;99.90
4643;DHT22;2334;48.710;9.622;2023-04-01T18:04:14;10.10;99.90
4643;DHT22;2334;48.710;9.622;2023-04-01T18:06:59;10.10;99.90
4643;DHT22;2334;48.710;9.622;2023-04-01T18:09:39;10.10;99.90
4643;DHT22;2334;48.710;9.622;2023-04-01T18:12:18;10.10;99.90
4643;DHT22;2334;48.710;9.622;2023-04-01T18:15:04;10.10;99.90
4643;DHT22;2334;48.710;9.622;2023-04-01T18:17:42;10.10;99.90
4643;DHT22;2334;48.710;9.622;2023-04-01T18:20:31;10.10;99.90
4643;DHT22;2334;48.710;9.622;2023-04-01T18:23:03;10.00;99.90
4643;DHT22;2334;48.710;9.622;2023-04-01T18:25:38;10.00;99.90
4643;DHT22;2334;48.710;9.622;2023-04-01T18:28:19;10.10;99.90